sensor_id;sensor_type;location;lat;lon;timestamp;P1;durP1;ratioP1;P2;durP2;ratioP2
13319;SDS011;59599;47.608;12.190;2022-07-22T04:01:57;9.27;;;8.38;;
13319;SDS011;59599;47.608;12.190;2022-07-22T04:04:23;8.82;;;7.93;;
13319;SDS011;59599;47.608;12.190;2022-07-22T04:06:49;11.80;;;8.88;;
13319;SDS011;59599;47.608;12.190;2022-07-22T04:09:16;9.63;;;8.40;;
13319;SDS011;59599;47.608;12.190;2022-07-22T04:11:42;12.13;;;8.30;;
13319;SDS011;59599;47.608;12.190;2022-07-22T04:14:08;9.20;;;8.27;;
13319;SDS011;59599;47.608;12.190;2022-07-22T04:16:34;9.95;;;8.98;;
13319;SDS011;59599;47.608;12.190;2022-07-22T04:19:00;11.07;;;8.30;;
13319;SDS011;59599;47.608;12.190;2022-07-22T04:21:26;9.85;;;7.95;;
13319;SDS011;59599;47.608;12.190;2022-07-22T04:23:52;9.93;;;7.90;;
13319;SDS011;59599;47.608;12.190;2022-07-22T04:26:18;9.75;;;8.10;;
13319;SDS011;59599;47.608;12.190;2022-07-22T04:28:44;10.05;;;8.93;;
13319;SDS011;59599;47.608;12.190;2022-07-22T04:31:10;8.75;;;7.95;;
13319;SDS011;59599;47.608;12.190;2022-07-22T04:33:35;9.10;;;8.07;;
13319;SDS011;59599;47.608;12.190;2022-07-22T04:36:01;9.60;;;8.63;;
13319;SDS011;59599;47.608;12.190;2022-07-22T04:38:27;9.57;;;8.50;;
13319;SDS011;59599;47.608;12.190;2022-07-22T04:40:53;10.60;;;8.70;;
13319;SDS011;59599;47.608;12.190;2022-07-22T04:43:19;14.88;;;10.27;;
13319;SDS011;59599;47.608;12.190;2022-07-22T04:45:45;13.30;;;8.70;;
13319;SDS011;59599;47.608;12.190;2022-07-22T04:48:11;9.80;;;8.90;;
13319;SDS011;59599;47.608;12.190;2022-07-22T04:50:37;10.68;;;9.20;;
13319;SDS011;59599;47.608;12.190;2022-07-22T04:53:03;10.70;;;8.77;;
13319;SDS011;59599;47.608;12.190;2022-07-22T04:55:29;11.00;;;9.85;;
13319;SDS011;59599;47.608;12.190;2022-07-22T04:57:55;10.70;;;9.30;;
13319;SDS011;59599;47.608;12.190;2022-07-22T05:00:21;11.85;;;9.18;;
13319;SDS011;59599;47.608;12.190;2022-07-22T05:02:47;11.65;;;9.35;;
13319;SDS011;59599;47.608;12.190;2022-07-22T05:05:13;11.35;;;9.38;;
13319;SDS011;59599;47.608;12.190;2022-07-22T05:07:39;9.98;;;9.00;;
13319;SDS011;59599;47.608;12.190;2022-07-22T05:10:05;10.27;;;9.27;;
13319;SDS011;59599;47.608;12.190;2022-07-22T05:12:31;12.20;;;9.48;;
13319;SDS011;59599;47.608;12.190;2022-07-22T05:14:57;10.52;;;9.30;;
13319;SDS011;59599;47.608;12.190;2022-07-22T05:17:23;10.45;;;9.30;;
13319;SDS011;59599;47.608;12.190;2022-07-22T05:19:48;11.45;;;9.73;;
13319;SDS011;59599;47.608;12.190;2022-07-22T05:22:14;12.25;;;9.05;;
13319;SDS011;59599;47.608;12.190;2022-07-22T05:24:40;12.07;;;9.45;;
13319;SDS011;59599;47.608;12.190;2022-07-22T05:27:05;10.43;;;9.43;;
13319;SDS011;59599;47.608;12.190;2022-07-22T05:29:31;10.02;;;9.02;;
13319;SDS011;59599;47.608;12.190;2022-07-22T05:31:57;11.18;;;9.77;;
13319;SDS011;59599;47.608;12.190;2022-07-22T05:34:22;11.48;;;10.30;;
13319;SDS011;59599;47.608;12.190;2022-07-22T05:36:48;10.88;;;9.68;;
13319;SDS011;59599;47.608;12.190;2022-07-22T05:39:14;12.80;;;10.35;;
13319;SDS011;59599;47.608;12.190;2022-07-22T05:41:40;12.30;;;9.90;;
13319;SDS011;59599;47.608;12.190;2022-07-22T05:44:06;10.32;;;9.32;;
13319;SDS011;59599;47.608;12.190;2022-07-22T05:46:31;11.27;;;10.18;;
13319;SDS011;59599;47.608;12.190;2022-07-22T05:48:57;12.95;;;9.98;;
13319;SDS011;59599;47.608;12.190;2022-07-22T05:51:23;14.43;;;9.80;;
13319;SDS011;59599;47.608;12.190;2022-07-22T05:53:49;13.13;;;9.60;;
13319;SDS011;59599;47.608;12.190;2022-07-22T05:56:15;11.25;;;9.38;;
13319;SDS011;59599;47.608;12.190;2022-07-22T05:58:41;10.57;;;8.75;;
13319;SDS011;59599;47.608;12.190;2022-07-22T06:01:08;13.10;;;8.52;;
13319;SDS011;59599;47.608;12.190;2022-07-22T06:03:34;10.35;;;9.23;;
13319;SDS011;59599;47.608;12.190;2022-07-22T06:06:00;12.80;;;8.60;;
13319;SDS011;59599;47.608;12.190;2022-07-22T06:08:27;10.18;;;8.82;;
13319;SDS011;59599;47.608;12.190;2022-07-22T06:10:53;12.07;;;9.32;;
13319;SDS011;59599;47.608;12.190;2022-07-22T06:13:19;12.75;;;8.88;;
13319;SDS011;59599;47.608;12.190;2022-07-22T06:15:45;10.65;;;9.02;;
13319;SDS011;59599;47.608;12.190;2022-07-22T06:18:11;12.23;;;8.98;;
13319;SDS011;59599;47.608;12.190;2022-07-22T06:20:37;10.32;;;9.13;;
13319;SDS011;59599;47.608;12.190;2022-07-22T06:23:03;9.50;;;8.60;;
13319;SDS011;59599;47.608;12.190;2022-07-22T06:25:29;8.95;;;8.05;;
13319;SDS011;59599;47.608;12.190;2022-07-22T06:27:55;10.30;;;9.20;;
13319;SDS011;59599;47.608;12.190;2022-07-22T06:30:20;10.30;;;9.23;;
13319;SDS011;59599;47.608;12.190;2022-07-22T06:32:46;9.27;;;8.30;;
13319;SDS011;59599;47.608;12.190;2022-07-22T06:35:12;11.18;;;10.07;;
13319;SDS011;59599;47.608;12.190;2022-07-22T06:37:38;10.25;;;9.23;;
13319;SDS011;59599;47.608;12.190;2022-07-22T06:40:04;10.27;;;9.18;;
13319;SDS011;59599;47.608;12.190;2022-07-22T06:42:30;10.45;;;9.45;;
13319;SDS011;59599;47.608;12.190;2022-07-22T06:44:55;12.02;;;9.40;;
13319;SDS011;59599;47.608;12.190;2022-07-22T06:47:21;11.45;;;8.77;;
13319;SDS011;59599;47.608;12.190;2022-07-22T06:49:47;9.18;;;8.27;;
13319;SDS011;59599;47.608;12.190;2022-07-22T06:52:13;9.32;;;8.40;;
13319;SDS011;59599;47.608;12.190;2022-07-22T06:54:38;13.63;;;8.88;;
13319;SDS011;59599;47.608;12.190;2022-07-22T06:57:04;10.38;;;8.80;;
13319;SDS011;59599;47.608;12.190;2022-07-22T06:59:30;15.20;;;9.57;;
13319;SDS011;59599;47.608;12.190;2022-07-22T07:01:55;11.52;;;9.27;;
13319;SDS011;59599;47.608;12.190;2022-07-22T07:04:21;9.40;;;8.30;;
13319;SDS011;59599;47.608;12.190;2022-07-22T07:06:47;10.32;;;9.32;;
13319;SDS011;59599;47.608;12.190;2022-07-22T07:09:13;11.55;;;10.07;;
13319;SDS011;59599;47.608;12.190;2022-07-22T07:11:39;10.48;;;9.48;;
13319;SDS011;59599;47.608;12.190;2022-07-22T07:14:04;10.98;;;9.63;;
13319;SDS011;59599;47.608;12.190;2022-07-22T07:16:30;9.43;;;8.35;;
13319;SDS011;59599;47.608;12.190;2022-07-22T07:18:56;10.50;;;9.50;;
13319;SDS011;59599;47.608;12.190;2022-07-22T07:21:22;9.73;;;8.73;;
13319;SDS011;59599;47.608;12.190;2022-07-22T07:23:47;10.30;;;9.30;;
13319;SDS011;59599;47.608;12.190;2022-07-22T07:26:13;11.27;;;10.23;;
13319;SDS011;59599;47.608;12.190;2022-07-22T07:28:39;11.23;;;10.02;;
13319;SDS011;59599;47.608;12.190;2022-07-22T07:31:05;12.30;;;9.55;;
13319;SDS011;59599;47.608;12.190;2022-07-22T07:33:31;11.20;;;9.13;;
13319;SDS011;59599;47.608;12.190;2022-07-22T07:35:57;11.30;;;9.90;;
13319;SDS011;59599;47.608;12.190;2022-07-22T07:38:23;23.95;;;12.45;;
13319;SDS011;59599;47.608;12.190;2022-07-22T07:40:48;15.93;;;10.98;;
13319;SDS011;59599;47.608;12.190;2022-07-22T07:43:14;11.27;;;9.82;;
13319;SDS011;59599;47.608;12.190;2022-07-22T07:45:39;11.70;;;9.57;;
13319;SDS011;59599;47.608;12.190;2022-07-22T07:48:05;10.90;;;9.35;;
13319;SDS011;59599;47.608;12.190;2022-07-22T07:50:31;11.27;;;9.95;;
13319;SDS011;59599;47.608;12.190;2022-07-22T07:52:57;10.82;;;8.50;;
13319;SDS011;59599;47.608;12.190;2022-07-22T07:55:24;10.10;;;9.13;;
13319;SDS011;59599;47.608;12.190;2022-07-22T07:57:49;12.18;;;10.10;;
13319;SDS011;59599;47.608;12.190;2022-07-22T08:00:16;11.00;;;9.80;;
13319;SDS011;59599;47.608;12.190;2022-07-22T08:02:45;13.85;;;10.48;;
13319;SDS011;59599;47.608;12.190;2022-07-22T08:05:10;12.32;;;10.07;;
13319;SDS011;59599;47.608;12.190;2022-07-22T08:07:37;11.15;;;10.05;;
13319;SDS011;59599;47.608;12.190;2022-07-22T08:10:04;11.00;;;9.25;;
13319;SDS011;59599;47.608;12.190;2022-07-22T08:12:30;10.02;;;8.85;;
13319;SDS011;59599;47.608;12.190;2022-07-22T08:14:56;10.02;;;9.02;;
13319;SDS011;59599;47.608;12.190;2022-07-22T08:17:22;9.48;;;8.52;;
13319;SDS011;59599;47.608;12.190;2022-07-22T08:19:47;9.60;;;8.68;;
13319;SDS011;59599;47.608;12.190;2022-07-22T08:22:13;9.38;;;8.48;;
13319;SDS011;59599;47.608;12.190;2022-07-22T08:24:39;9.95;;;8.95;;
13319;SDS011;59599;47.608;12.190;2022-07-22T08:27:05;12.43;;;10.27;;
13319;SDS011;59599;47.608;12.190;2022-07-22T08:29:31;11.13;;;8.55;;
13319;SDS011;59599;47.608;12.190;2022-07-22T08:31:56;10.48;;;8.27;;
13319;SDS011;59599;47.608;12.190;2022-07-22T08:34:22;11.60;;;8.82;;
13319;SDS011;59599;47.608;12.190;2022-07-22T08:36:48;10.85;;;9.07;;
13319;SDS011;59599;47.608;12.190;2022-07-22T08:39:14;9.82;;;8.93;;
13319;SDS011;59599;47.608;12.190;2022-07-22T08:41:39;10.10;;;8.98;;
13319;SDS011;59599;47.608;12.190;2022-07-22T08:44:07;9.45;;;8.55;;
13319;SDS011;59599;47.608;12.190;2022-07-22T08:46:33;9.77;;;8.73;;
13319;SDS011;59599;47.608;12.190;2022-07-22T08:48:59;8.52;;;7.82;;
13319;SDS011;59599;47.608;12.190;2022-07-22T08:51:26;12.13;;;8.70;;
13319;SDS011;59599;47.608;12.190;2022-07-22T08:53:52;9.73;;;8.73;;
13319;SDS011;59599;47.608;12.190;2022-07-22T08:56:18;9.32;;;8.43;;
13319;SDS011;59599;47.608;12.190;2022-07-22T08:58:44;9.05;;;7.60;;
13319;SDS011;59599;47.608;12.190;2022-07-22T09:01:11;9.10;;;8.05;;
13319;SDS011;59599;47.608;12.190;2022-07-22T09:03:44;8.82;;;6.78;;
13319;SDS011;59599;47.608;12.190;2022-07-22T09:06:18;7.78;;;6.97;;
13319;SDS011;59599;47.608;12.190;2022-07-22T09:08:52;7.15;;;6.43;;
13319;SDS011;59599;47.608;12.190;2022-07-22T09:11:20;6.95;;;6.28;;
13319;SDS011;59599;47.608;12.190;2022-07-22T09:13:51;7.22;;;6.28;;
13319;SDS011;59599;47.608;12.190;2022-07-22T09:19:09;7.30;;;6.60;;
13319;SDS011;59599;47.608;12.190;2022-07-22T09:21:36;7.13;;;6.38;;
13319;SDS011;59599;47.608;12.190;2022-07-22T09:24:04;8.32;;;6.72;;
13319;SDS011;59599;47.608;12.190;2022-07-22T09:26:31;6.55;;;5.82;;
13319;SDS011;59599;47.608;12.190;2022-07-22T09:28:59;7.13;;;6.43;;
13319;SDS011;59599;47.608;12.190;2022-07-22T09:31:25;8.73;;;7.03;;
13319;SDS011;59599;47.608;12.190;2022-07-22T09:33:52;6.85;;;5.75;;
13319;SDS011;59599;47.608;12.190;2022-07-22T09:36:19;6.95;;;6.25;;
13319;SDS011;59599;47.608;12.190;2022-07-22T09:38:44;7.00;;;6.00;;
13319;SDS011;59599;47.608;12.190;2022-07-22T09:41:10;9.30;;;6.68;;
13319;SDS011;59599;47.608;12.190;2022-07-22T09:43:35;9.18;;;6.28;;
13319;SDS011;59599;47.608;12.190;2022-07-22T09:46:01;8.07;;;6.57;;
13319;SDS011;59599;47.608;12.190;2022-07-22T09:48:29;8.65;;;6.30;;
13319;SDS011;59599;47.608;12.190;2022-07-22T09:50:56;9.15;;;6.18;;
13319;SDS011;59599;47.608;12.190;2022-07-22T09:53:23;9.55;;;7.38;;
13319;SDS011;59599;47.608;12.190;2022-07-22T09:55:52;6.78;;;6.07;;
13319;SDS011;59599;47.608;12.190;2022-07-22T09:58:18;8.93;;;6.32;;
13319;SDS011;59599;47.608;12.190;2022-07-22T10:00:44;6.72;;;6.07;;
13319;SDS011;59599;47.608;12.190;2022-07-22T10:03:11;8.70;;;7.03;;
13319;SDS011;59599;47.608;12.190;2022-07-22T10:05:42;6.72;;;6.13;;
13319;SDS011;59599;47.608;12.190;2022-07-22T10:08:08;7.38;;;6.68;;
13319;SDS011;59599;47.608;12.190;2022-07-22T10:10:35;10.10;;;6.43;;
13319;SDS011;59599;47.608;12.190;2022-07-22T10:13:03;10.13;;;6.78;;
13319;SDS011;59599;47.608;12.190;2022-07-22T10:15:31;7.07;;;5.97;;
13319;SDS011;59599;47.608;12.190;2022-07-22T10:17:58;8.32;;;6.47;;
13319;SDS011;59599;47.608;12.190;2022-07-22T10:20:27;8.90;;;6.95;;
13319;SDS011;59599;47.608;12.190;2022-07-22T10:22:54;7.30;;;6.68;;
13319;SDS011;59599;47.608;12.190;2022-07-22T10:25:22;7.55;;;6.90;;
13319;SDS011;59599;47.608;12.190;2022-07-22T10:30:31;8.48;;;7.07;;
13319;SDS011;59599;47.608;12.190;2022-07-22T10:35:38;9.40;;;7.40;;
13319;SDS011;59599;47.608;12.190;2022-07-22T10:38:22;8.40;;;6.70;;
13319;SDS011;59599;47.608;12.190;2022-07-22T10:40:49;8.60;;;7.10;;
13319;SDS011;59599;47.608;12.190;2022-07-22T10:43:15;8.88;;;7.28;;
13319;SDS011;59599;47.608;12.190;2022-07-22T10:48:14;8.88;;;7.55;;
13319;SDS011;59599;47.608;12.190;2022-07-22T10:50:43;7.65;;;6.95;;
13319;SDS011;59599;47.608;12.190;2022-07-22T10:53:14;7.05;;;6.45;;
13319;SDS011;59599;47.608;12.190;2022-07-22T11:00:57;7.47;;;6.57;;
13319;SDS011;59599;47.608;12.190;2022-07-22T11:03:24;8.05;;;7.03;;
13319;SDS011;59599;47.608;12.190;2022-07-22T11:05:50;7.00;;;6.30;;
13319;SDS011;59599;47.608;12.190;2022-07-22T11:08:16;7.25;;;6.45;;
13319;SDS011;59599;47.608;12.190;2022-07-22T11:10:47;10.45;;;7.47;;
13319;SDS011;59599;47.608;12.190;2022-07-22T11:13:34;8.63;;;7.07;;
13319;SDS011;59599;47.608;12.190;2022-07-22T11:21:27;7.65;;;6.85;;
13319;SDS011;59599;47.608;12.190;2022-07-22T11:23:57;8.23;;;7.43;;
13319;SDS011;59599;47.608;12.190;2022-07-22T11:26:43;10.35;;;7.05;;
13319;SDS011;59599;47.608;12.190;2022-07-22T11:31:48;13.18;;;7.93;;
13319;SDS011;59599;47.608;12.190;2022-07-22T11:34:14;8.02;;;7.22;;
13319;SDS011;59599;47.608;12.190;2022-07-22T11:36:42;7.80;;;7.05;;
13319;SDS011;59599;47.608;12.190;2022-07-22T11:39:09;7.90;;;7.10;;
13319;SDS011;59599;47.608;12.190;2022-07-22T11:41:35;8.25;;;6.85;;
13319;SDS011;59599;47.608;12.190;2022-07-22T11:44:02;9.27;;;6.55;;
13319;SDS011;59599;47.608;12.190;2022-07-22T11:46:28;7.22;;;6.53;;
13319;SDS011;59599;47.608;12.190;2022-07-22T11:49:03;7.75;;;6.95;;
13319;SDS011;59599;47.608;12.190;2022-07-22T11:51:30;8.02;;;6.70;;
13319;SDS011;59599;47.608;12.190;2022-07-22T11:53:56;8.15;;;6.25;;
13319;SDS011;59599;47.608;12.190;2022-07-22T11:56:22;7.85;;;6.47;;
13319;SDS011;59599;47.608;12.190;2022-07-22T11:58:48;8.43;;;6.65;;
13319;SDS011;59599;47.608;12.190;2022-07-22T12:01:16;11.65;;;6.82;;
13319;SDS011;59599;47.608;12.190;2022-07-22T12:03:50;7.97;;;6.72;;
13319;SDS011;59599;47.608;12.190;2022-07-22T12:06:26;6.90;;;6.30;;
13319;SDS011;59599;47.608;12.190;2022-07-22T12:08:55;10.38;;;6.65;;
13319;SDS011;59599;47.608;12.190;2022-07-22T12:11:27;6.53;;;5.85;;
13319;SDS011;59599;47.608;12.190;2022-07-22T12:13:54;8.55;;;6.57;;
13319;SDS011;59599;47.608;12.190;2022-07-22T12:16:21;7.03;;;6.32;;
13319;SDS011;59599;47.608;12.190;2022-07-22T12:19:01;9.27;;;6.68;;
13319;SDS011;59599;47.608;12.190;2022-07-22T12:21:29;7.40;;;6.38;;
13319;SDS011;59599;47.608;12.190;2022-07-22T12:24:02;8.02;;;6.45;;
13319;SDS011;59599;47.608;12.190;2022-07-22T12:26:38;7.88;;;6.57;;
13319;SDS011;59599;47.608;12.190;2022-07-22T12:32:01;6.78;;;5.82;;
13319;SDS011;59599;47.608;12.190;2022-07-22T12:34:32;8.07;;;5.88;;
13319;SDS011;59599;47.608;12.190;2022-07-22T12:37:42;6.90;;;6.20;;
13319;SDS011;59599;47.608;12.190;2022-07-22T12:39:59;9.18;;;5.93;;
13319;SDS011;59599;47.608;12.190;2022-07-22T12:42:33;7.00;;;6.32;;
13319;SDS011;59599;47.608;12.190;2022-07-22T12:45:04;7.45;;;6.20;;
13319;SDS011;59599;47.608;12.190;2022-07-22T12:50:23;7.20;;;6.45;;
13319;SDS011;59599;47.608;12.190;2022-07-22T12:55:39;6.38;;;5.68;;
13319;SDS011;59599;47.608;12.190;2022-07-22T12:58:26;8.43;;;6.45;;
13319;SDS011;59599;47.608;12.190;2022-07-22T13:00:55;9.30;;;6.03;;
13319;SDS011;59599;47.608;12.190;2022-07-22T13:03:22;8.68;;;6.50;;
13319;SDS011;59599;47.608;12.190;2022-07-22T13:05:51;8.25;;;6.70;;
13319;SDS011;59599;47.608;12.190;2022-07-22T13:08:19;6.85;;;6.25;;
13319;SDS011;59599;47.608;12.190;2022-07-22T13:10:45;6.40;;;5.75;;
13319;SDS011;59599;47.608;12.190;2022-07-22T13:13:11;6.40;;;5.75;;
13319;SDS011;59599;47.608;12.190;2022-07-22T13:15:37;7.30;;;6.57;;
13319;SDS011;59599;47.608;12.190;2022-07-22T13:18:03;7.82;;;6.72;;
13319;SDS011;59599;47.608;12.190;2022-07-22T13:20:29;7.20;;;6.50;;
13319;SDS011;59599;47.608;12.190;2022-07-22T13:22:54;7.57;;;6.55;;
13319;SDS011;59599;47.608;12.190;2022-07-22T13:25:20;6.72;;;6.13;;
13319;SDS011;59599;47.608;12.190;2022-07-22T13:27:46;10.30;;;6.32;;
13319;SDS011;59599;47.608;12.190;2022-07-22T13:30:12;6.85;;;6.15;;
13319;SDS011;59599;47.608;12.190;2022-07-22T13:32:38;8.85;;;6.80;;
13319;SDS011;59599;47.608;12.190;2022-07-22T13:35:04;9.75;;;6.82;;
13319;SDS011;59599;47.608;12.190;2022-07-22T13:37:30;7.43;;;6.72;;
13319;SDS011;59599;47.608;12.190;2022-07-22T13:39:55;6.38;;;5.85;;
13319;SDS011;59599;47.608;12.190;2022-07-22T13:42:21;10.93;;;6.55;;
13319;SDS011;59599;47.608;12.190;2022-07-22T13:44:47;7.45;;;6.50;;
13319;SDS011;59599;47.608;12.190;2022-07-22T13:47:15;7.80;;;6.35;;
13319;SDS011;59599;47.608;12.190;2022-07-22T13:49:41;7.55;;;6.72;;
13319;SDS011;59599;47.608;12.190;2022-07-22T13:52:09;8.07;;;6.45;;
13319;SDS011;59599;47.608;12.190;2022-07-22T13:54:35;8.27;;;6.78;;
13319;SDS011;59599;47.608;12.190;2022-07-22T13:57:01;7.22;;;6.57;;
13319;SDS011;59599;47.608;12.190;2022-07-22T13:59:29;15.40;;;6.88;;
13319;SDS011;59599;47.608;12.190;2022-07-22T14:01:55;7.28;;;6.57;;
13319;SDS011;59599;47.608;12.190;2022-07-22T14:04:22;7.70;;;7.00;;
13319;SDS011;59599;47.608;12.190;2022-07-22T14:06:47;7.22;;;6.53;;
13319;SDS011;59599;47.608;12.190;2022-07-22T14:09:13;8.45;;;6.43;;
13319;SDS011;59599;47.608;12.190;2022-07-22T14:11:39;11.23;;;7.38;;
13319;SDS011;59599;47.608;12.190;2022-07-22T14:14:05;8.10;;;6.78;;
13319;SDS011;59599;47.608;12.190;2022-07-22T14:16:31;12.55;;;7.00;;
13319;SDS011;59599;47.608;12.190;2022-07-22T14:19:04;11.50;;;6.43;;
13319;SDS011;59599;47.608;12.190;2022-07-22T14:21:32;6.72;;;6.03;;
13319;SDS011;59599;47.608;12.190;2022-07-22T14:23:58;7.72;;;6.97;;
13319;SDS011;59599;47.608;12.190;2022-07-22T14:26:24;7.32;;;6.60;;
13319;SDS011;59599;47.608;12.190;2022-07-22T14:28:50;8.82;;;6.47;;
13319;SDS011;59599;47.608;12.190;2022-07-22T14:31:16;7.88;;;6.90;;
13319;SDS011;59599;47.608;12.190;2022-07-22T14:33:42;7.60;;;6.72;;
13319;SDS011;59599;47.608;12.190;2022-07-22T14:36:08;9.10;;;6.95;;
13319;SDS011;59599;47.608;12.190;2022-07-22T14:38:34;7.32;;;6.50;;
13319;SDS011;59599;47.608;12.190;2022-07-22T14:40:59;8.70;;;6.78;;
13319;SDS011;59599;47.608;12.190;2022-07-22T14:43:25;7.22;;;6.57;;
13319;SDS011;59599;47.608;12.190;2022-07-22T14:45:51;8.70;;;6.57;;
13319;SDS011;59599;47.608;12.190;2022-07-22T14:48:17;8.55;;;6.68;;
13319;SDS011;59599;47.608;12.190;2022-07-22T14:50:42;14.13;;;7.15;;
13319;SDS011;59599;47.608;12.190;2022-07-22T14:53:08;7.43;;;6.72;;
13319;SDS011;59599;47.608;12.190;2022-07-22T14:55:34;9.68;;;6.00;;
13319;SDS011;59599;47.608;12.190;2022-07-22T14:57:59;6.63;;;6.05;;
13319;SDS011;59599;47.608;12.190;2022-07-22T15:00:25;8.90;;;6.68;;
13319;SDS011;59599;47.608;12.190;2022-07-22T15:02:51;7.28;;;6.57;;
13319;SDS011;59599;47.608;12.190;2022-07-22T15:05:17;8.02;;;6.32;;
13319;SDS011;59599;47.608;12.190;2022-07-22T15:07:42;7.22;;;6.53;;
13319;SDS011;59599;47.608;12.190;2022-07-22T15:10:08;8.95;;;6.30;;
13319;SDS011;59599;47.608;12.190;2022-07-22T15:12:35;10.52;;;6.45;;
13319;SDS011;59599;47.608;12.190;2022-07-22T15:15:01;8.07;;;6.78;;
13319;SDS011;59599;47.608;12.190;2022-07-22T15:17:27;7.15;;;6.45;;
13319;SDS011;59599;47.608;12.190;2022-07-22T15:19:53;8.25;;;6.53;;
13319;SDS011;59599;47.608;12.190;2022-07-22T15:22:19;8.10;;;7.30;;
13319;SDS011;59599;47.608;12.190;2022-07-22T15:24:47;7.70;;;6.57;;
13319;SDS011;59599;47.608;12.190;2022-07-22T15:27:12;6.97;;;6.07;;
13319;SDS011;59599;47.608;12.190;2022-07-22T15:29:38;7.97;;;6.25;;
13319;SDS011;59599;47.608;12.190;2022-07-22T15:32:04;10.43;;;6.55;;
13319;SDS011;59599;47.608;12.190;2022-07-22T15:34:31;7.60;;;6.78;;
13319;SDS011;59599;47.608;12.190;2022-07-22T15:37:00;7.35;;;6.57;;
13319;SDS011;59599;47.608;12.190;2022-07-22T15:39:26;8.35;;;6.60;;
13319;SDS011;59599;47.608;12.190;2022-07-22T15:41:51;6.97;;;6.28;;
13319;SDS011;59599;47.608;12.190;2022-07-22T15:44:17;6.85;;;6.20;;
13319;SDS011;59599;47.608;12.190;2022-07-22T15:46:43;7.78;;;6.70;;
13319;SDS011;59599;47.608;12.190;2022-07-22T15:49:08;6.82;;;6.28;;
13319;SDS011;59599;47.608;12.190;2022-07-22T15:51:36;8.73;;;6.60;;
13319;SDS011;59599;47.608;12.190;2022-07-22T15:54:02;7.57;;;6.30;;
13319;SDS011;59599;47.608;12.190;2022-07-22T15:56:27;7.35;;;6.70;;
13319;SDS011;59599;47.608;12.190;2022-07-22T15:58:53;7.15;;;6.45;;
13319;SDS011;59599;47.608;12.190;2022-07-22T16:01:37;8.82;;;5.97;;
13319;SDS011;59599;47.608;12.190;2022-07-22T16:04:03;8.43;;;6.45;;
13319;SDS011;59599;47.608;12.190;2022-07-22T16:06:29;7.72;;;6.35;;
13319;SDS011;59599;47.608;12.190;2022-07-22T16:08:55;6.38;;;5.80;;
13319;SDS011;59599;47.608;12.190;2022-07-22T16:11:21;8.48;;;6.90;;
13319;SDS011;59599;47.608;12.190;2022-07-22T16:13:47;8.63;;;6.72;;
13319;SDS011;59599;47.608;12.190;2022-07-22T16:16:13;8.75;;;6.32;;
13319;SDS011;59599;47.608;12.190;2022-07-22T16:18:39;7.57;;;6.53;;
13319;SDS011;59599;47.608;12.190;2022-07-22T16:21:04;8.05;;;6.15;;
13319;SDS011;59599;47.608;12.190;2022-07-22T16:23:30;6.95;;;6.15;;
13319;SDS011;59599;47.608;12.190;2022-07-22T16:25:56;6.70;;;6.05;;
13319;SDS011;59599;47.608;12.190;2022-07-22T16:28:22;7.03;;;6.38;;
13319;SDS011;59599;47.608;12.190;2022-07-22T16:30:48;7.55;;;6.82;;
13319;SDS011;59599;47.608;12.190;2022-07-22T16:33:14;8.02;;;6.05;;
13319;SDS011;59599;47.608;12.190;2022-07-22T16:35:40;7.00;;;6.40;;
13319;SDS011;59599;47.608;12.190;2022-07-22T16:38:06;8.00;;;6.57;;
13319;SDS011;59599;47.608;12.190;2022-07-22T16:40:32;6.70;;;6.07;;
13319;SDS011;59599;47.608;12.190;2022-07-22T16:42:57;8.13;;;6.32;;
13319;SDS011;59599;47.608;12.190;2022-07-22T16:45:23;7.30;;;6.70;;
13319;SDS011;59599;47.608;12.190;2022-07-22T16:47:50;7.55;;;6.65;;
13319;SDS011;59599;47.608;12.190;2022-07-22T16:50:16;6.93;;;6.22;;
13319;SDS011;59599;47.608;12.190;2022-07-22T16:52:42;7.45;;;6.75;;
13319;SDS011;59599;47.608;12.190;2022-07-22T16:55:08;7.47;;;6.78;;
13319;SDS011;59599;47.608;12.190;2022-07-22T16:57:37;9.68;;;6.70;;
13319;SDS011;59599;47.608;12.190;2022-07-22T17:00:03;7.32;;;6.63;;
13319;SDS011;59599;47.608;12.190;2022-07-22T17:02:31;7.55;;;6.28;;
13319;SDS011;59599;47.608;12.190;2022-07-22T17:04:57;10.63;;;6.70;;
13319;SDS011;59599;47.608;12.190;2022-07-22T17:07:23;6.82;;;6.22;;
13319;SDS011;59599;47.608;12.190;2022-07-22T17:09:49;9.88;;;6.60;;
13319;SDS011;59599;47.608;12.190;2022-07-22T17:12:15;11.70;;;6.63;;
13319;SDS011;59599;47.608;12.190;2022-07-22T17:14:41;9.18;;;6.53;;
13319;SDS011;59599;47.608;12.190;2022-07-22T17:17:07;7.30;;;6.55;;
13319;SDS011;59599;47.608;12.190;2022-07-22T17:19:32;7.15;;;6.55;;
13319;SDS011;59599;47.608;12.190;2022-07-22T17:21:58;7.70;;;6.93;;
13319;SDS011;59599;47.608;12.190;2022-07-22T17:24:23;6.93;;;6.22;;
13319;SDS011;59599;47.608;12.190;2022-07-22T17:26:49;7.38;;;6.63;;
13319;SDS011;59599;47.608;12.190;2022-07-22T17:29:15;7.55;;;6.80;;
13319;SDS011;59599;47.608;12.190;2022-07-22T17:31:41;8.68;;;6.75;;
13319;SDS011;59599;47.608;12.190;2022-07-22T17:34:06;8.75;;;7.25;;
13319;SDS011;59599;47.608;12.190;2022-07-22T17:36:32;10.23;;;7.07;;
13319;SDS011;59599;47.608;12.190;2022-07-22T17:38:58;7.93;;;7.13;;
13319;SDS011;59599;47.608;12.190;2022-07-22T17:41:25;7.93;;;7.00;;
13319;SDS011;59599;47.608;12.190;2022-07-22T17:43:50;6.97;;;6.32;;
13319;SDS011;59599;47.608;12.190;2022-07-22T17:46:16;7.72;;;6.85;;
13319;SDS011;59599;47.608;12.190;2022-07-22T17:48:42;9.02;;;7.15;;
13319;SDS011;59599;47.608;12.190;2022-07-22T17:51:08;10.52;;;6.80;;
13319;SDS011;59599;47.608;12.190;2022-07-22T17:53:35;8.20;;;7.40;;
13319;SDS011;59599;47.608;12.190;2022-07-22T17:56:04;8.68;;;6.90;;
13319;SDS011;59599;47.608;12.190;2022-07-22T17:58:30;10.05;;;7.47;;
13319;SDS011;59599;47.608;12.190;2022-07-22T18:00:56;8.10;;;7.35;;
13319;SDS011;59599;47.608;12.190;2022-07-22T18:03:22;7.68;;;6.88;;
13319;SDS011;59599;47.608;12.190;2022-07-22T18:05:48;8.48;;;6.78;;
13319;SDS011;59599;47.608;12.190;2022-07-22T18:08:15;9.70;;;7.15;;
13319;SDS011;59599;47.608;12.190;2022-07-22T18:10:40;9.15;;;6.78;;
13319;SDS011;59599;47.608;12.190;2022-07-22T18:13:06;7.45;;;6.80;;
13319;SDS011;59599;47.608;12.190;2022-07-22T18:15:32;7.50;;;6.80;;
13319;SDS011;59599;47.608;12.190;2022-07-22T18:17:58;8.18;;;7.32;;
13319;SDS011;59599;47.608;12.190;2022-07-22T18:20:23;8.80;;;7.80;;
13319;SDS011;59599;47.608;12.190;2022-07-22T18:22:49;8.95;;;8.05;;
13319;SDS011;59599;47.608;12.190;2022-07-22T18:25:15;9.38;;;8.00;;
13319;SDS011;59599;47.608;12.190;2022-07-22T18:27:41;8.02;;;7.20;;
13319;SDS011;59599;47.608;12.190;2022-07-22T18:30:06;10.13;;;7.75;;
13319;SDS011;59599;47.608;12.190;2022-07-22T18:32:33;10.75;;;7.63;;
13319;SDS011;59599;47.608;12.190;2022-07-22T18:34:59;9.18;;;7.43;;
13319;SDS011;59599;47.608;12.190;2022-07-22T18:37:25;8.75;;;7.32;;
13319;SDS011;59599;47.608;12.190;2022-07-22T18:39:50;8.38;;;7.65;;
13319;SDS011;59599;47.608;12.190;2022-07-22T18:42:16;7.90;;;7.20;;
13319;SDS011;59599;47.608;12.190;2022-07-22T18:44:42;8.68;;;7.78;;
13319;SDS011;59599;47.608;12.190;2022-07-22T18:47:08;8.10;;;7.28;;
13319;SDS011;59599;47.608;12.190;2022-07-22T18:49:34;10.05;;;8.18;;
13319;SDS011;59599;47.608;12.190;2022-07-22T18:52:00;10.18;;;8.38;;
13319;SDS011;59599;47.608;12.190;2022-07-22T18:54:25;13.18;;;8.95;;
13319;SDS011;59599;47.608;12.190;2022-07-22T18:56:51;10.57;;;9.18;;
13319;SDS011;59599;47.608;12.190;2022-07-22T18:59:19;9.63;;;7.40;;